Terminal Aerodrome Forecast
Issued by NWS

Home | Current Version | Previous Version | Text Only | Print | Product List | Glossary On
Versions: 1 2 3 4 5 6 7 8 9 10 11 12 13 14 15 16 17 18 19 20 21 22 23
000
FTUS43 KGRR 250300 AAB
TAFAZO
TAF AMD
KAZO 250333Z 2504/2524 VRB03KT 2SM BR SCT040
      TEMPO 2504/2506 4SM BR
     FM250600 18005KT 2SM BR OVC007
     FM251200 24005KT 1 1/2SM BR OVC007
     FM251500 26009KT 4SM BR OVC015
     FM251800 28012G20KT P6SM SCT250=

USA.gov is the U.S. government's official web portal to all federal, state and local government web resources and services.